Emerald Coast — WDC9127 — position and weather

sailwx.info

Track history (hours):
 
Tides and Currents Weather Stations Pressure Air Temp Water Temp Dewpoint Dewpoint Depression Visibility Wind Speed Wind Dir Waves Ship Positions

Emerald Coast

Owner: Dann Marine Towing, LC, Chesapeake City, MD. More information available from US FCC via Universal Licensing System and Coast Guard Vessel Documentation Center.

Last reported at 2016-May-25 00:33 UTC. Time now 2016-May-25 01:26 UTC.
Position N 40°40' W 074°09'.

Length 28 m; draft 3 m.

Type: Towing. MMSI: 367097920.

Date/timePositionNaut miles runAvg speedWind from/ knotsBaromVisibWave heightAir tempDewpointWater temp
2016-May-25 00:33N 40°40' W 074°09'0 0.0
2016-May-24 23:33N 40°40' W 074°08'1 1.2
2016-May-24 22:33N 40°41' W 074°09'0 0.3
2016-May-24 21:34N 40°41' W 074°09'1 1.4
2016-May-24 20:33N 40°40' W 074°09'0 0.0
2016-May-24 19:34N 40°40' W 074°09'0 0.0
2016-May-24 18:33N 40°40' W 074°09'0 0.0
2016-May-24 17:33N 40°40' W 074°09'0 0.0
2016-May-24 16:33N 40°40' W 074°09'1 1.0
2016-May-24 15:34N 40°41' W 074°08'3 2.8
2016-May-24 14:34N 40°39' W 074°05'2 0.5
2016-May-24 11:09N 40°39' W 074°07'0 0.0
2016-May-24 09:33N 40°39' W 074°07'4 3.8
2016-May-24 08:33N 40°40' W 074°03'0 0.0
2016-May-24 07:33N 40°40' W 074°03'0 0.0
2016-May-24 06:34N 40°40' W 074°03'0 0.0
2016-May-24 05:34N 40°40' W 074°03'0 0.2
2016-May-24 04:33N 40°40' W 074°03'0 0.1
2016-May-24 03:33N 40°41' W 074°03'0 0.0
2016-May-24 02:33N 40°41' W 074°03'4 4.5
2016-May-24 01:33N 40°39' W 074°08'2 2.3
2016-May-24 00:33N 40°41' W 074°09'0 0.0
2016-May-23 23:33N 40°41' W 074°09'0 0.0
2016-May-23 22:34N 40°41' W 074°09'0 0.0
2016-May-23 21:33N 40°41' W 074°09'0 0.0
2016-May-23 20:33N 40°41' W 074°09'0 0.0
2016-May-23 19:33N 40°41' W 074°09'0 0.0
2016-May-23 18:33N 40°41' W 074°09'0 0.1
2016-May-23 17:34N 40°41' W 074°09'0 0.1
2016-May-23 16:33N 40°41' W 074°09'0 0.0
2016-May-23 15:33N 40°41' W 074°09'1 0.5
2016-May-23 14:32N 40°41' W 074°09'0 0.0
2016-May-23 13:32N 40°41' W 074°09'0 0.0
2016-May-23 12:33N 40°41' W 074°09'0 0.0
2016-May-23 11:31N 40°41' W 074°09'0 0.0
2016-May-23 10:04N 40°41' W 074°09'0 0.0
2016-May-23 09:33N 40°41' W 074°09'3 3.1
2016-May-23 08:34N 40°39' W 074°07'2 0.1
2016-May-22 16:33N 40°39' W 074°05'1 1.0
2016-May-22 15:33N 40°40' W 074°04'0 0.0
2016-May-22 14:34N 40°40' W 074°04'0 0.0
2016-May-22 13:33N 40°40' W 074°04'0 0.0
2016-May-22 12:34N 40°40' W 074°04'0 0.0
2016-May-22 11:33N 40°40' W 074°04'2 1.6
2016-May-22 10:33N 40°39' W 074°03'2 1.6
2016-May-22 09:33N 40°40' W 074°04'0 0.0
2016-May-22 08:34N 40°40' W 074°04'0 0.0
2016-May-22 07:33N 40°40' W 074°04'0 0.0
2016-May-22 06:34N 40°40' W 074°04'0 0.0
2016-May-22 05:34N 40°40' W 074°04'2 2.3
2016-May-22 04:33N 40°40' W 074°01'1 0.6
2016-May-22 03:33N 40°40' W 074°00'0 0.0
2016-May-22 02:33N 40°40' W 074°00'0 0.0
2016-May-22 01:34N 40°40' W 074°00'0 0.0
2016-May-22 00:33N 40°40' W 074°00'0 0.0
2016-May-21 23:33N 40°40' W 074°00'0 0.0
2016-May-21 22:33N 40°40' W 074°00'0 0.3
2016-May-21 21:33N 40°40' W 074°00'0 0.3
2016-May-21 20:34N 40°40' W 074°01'0 0.0
2016-May-21 19:33N 40°40' W 074°01'0 0.0
2016-May-21 18:33N 40°40' W 074°01'0 0.0
2016-May-21 17:34N 40°40' W 074°01'0 0.1
2016-May-21 16:34N 40°40' W 074°01'3 2.9
2016-May-21 15:33N 40°40' W 074°04'0 0.0
2016-May-21 14:33N 40°40' W 074°04'0 0.0
2016-May-21 13:33N 40°40' W 074°04'0 0.0
2016-May-21 12:33N 40°40' W 074°04'0 0.3
2016-May-21 11:33N 40°40' W 074°04'0 0.3
2016-May-21 10:33N 40°40' W 074°04'0 0.0
2016-May-21 09:33N 40°40' W 074°04'0 0.0
2016-May-21 08:33N 40°40' W 074°04'0 0.1
2016-May-21 07:33N 40°40' W 074°04'1 0.2
2016-May-21 00:33N 40°39' W 074°05'2 2.4
2016-May-20 23:33N 40°41' W 074°03'4 0.7
2016-May-20 18:09N 40°39' W 074°07'0 0.0
2016-May-20 17:25N 40°38' W 074°07'0 0.1
2016-May-20 14:33N 40°39' W 074°07'5 4.6
2016-May-20 13:33N 40°40' W 074°01'6 5.8
2016-May-20 12:33N 40°39' W 074°09'1 1.4
2016-May-20 11:33N 40°41' W 074°09'1 0.6
2016-May-20 10:34N 40°41' W 074°09'0 0.0
2016-May-20 09:33N 40°41' W 074°09'0 0.0
2016-May-20 08:33N 40°41' W 074°09'0 0.0
2016-May-20 07:33N 40°41' W 074°09'0 0.0
2016-May-20 06:33N 40°41' W 074°09'0 0.0
2016-May-20 05:33N 40°41' W 074°09'0 0.0
2016-May-20 04:33N 40°41' W 074°09'0 0.0
2016-May-20 03:34N 40°41' W 074°09'0 0.0
2016-May-20 02:34N 40°41' W 074°09'0 0.0
2016-May-20 01:33N 40°41' W 074°09'0 0.0
2016-May-20 00:33N 40°41' W 074°09'3 2.8
2016-May-19 23:33N 40°39' W 074°08'4 3.9
2016-May-19 22:33N 40°39' W 074°03'2 2.0
2016-May-19 21:34N 40°40' W 074°00'0 0.0
2016-May-19 20:34N 40°40' W 074°00'0 0.0
2016-May-19 19:34N 40°40' W 074°00'0 0.0
2016-May-19 18:33N 40°40' W 074°00'4 3.7
2016-May-19 17:33N 40°39' W 074°05'3 2.8
2016-May-19 16:33N 40°40' W 074°09'0 0.0
2016-May-19 15:34N 40°40' W 074°09'0 0.0
2016-May-19 14:33N 40°40' W 074°09'0 0.0
2016-May-19 13:33N 40°40' W 074°09'2 2.1
2016-May-19 12:33N 40°39' W 074°06'5 5.3
2016-May-19 11:34N 40°41' W 074°00'0 0.0
2016-May-19 10:33N 40°41' W 074°00'7 6.8
2016-May-19 09:33N 40°39' W 074°09'2 1.9
2016-May-19 08:33N 40°41' W 074°09'0 0.0
2016-May-19 07:33N 40°41' W 074°09'0 0.0
2016-May-19 06:33N 40°41' W 074°09'0 0.0
2016-May-19 02:15N 40°41' W 074°09'0 0.0
2016-May-18 22:09N 40°41' W 074°09'1 2.2
2016-May-18 21:34N 40°40' W 074°08'1 0.9
2016-May-18 20:33N 40°39' W 074°09'2 0.5
2016-May-18 15:34N 40°39' W 074°05'5 4.6
2016-May-18 14:34N 40°41' W 074°00'4 4.4
2016-May-18 13:33N 40°39' W 074°05'3 2.9
2016-May-18 12:33N 40°40' W 074°08'2 2.1
2016-May-18 11:34N 40°39' W 074°06'4 4.0
2016-May-18 10:33N 40°40' W 074°01'1 0.7
2016-May-18 09:33N 40°40' W 074°00'0 0.0
2016-May-18 08:34N 40°40' W 074°00'0 0.0
2016-May-18 07:33N 40°40' W 074°00'0 0.0
2016-May-18 06:33N 40°40' W 074°00'0 0.0
2016-May-18 05:33N 40°40' W 074°00'0 0.0
2016-May-18 04:33N 40°40' W 074°00'1 1.3
2016-May-18 03:33N 40°41' W 074°00'4 4.5
2016-May-18 02:34N 40°38' W 074°04'3 2.8
2016-May-18 01:33N 40°39' W 074°07'0 0.0
2016-May-18 00:33N 40°39' W 074°07'2 2.4
2016-May-17 23:33N 40°39' W 074°04'1 0.7
2016-May-17 22:33N 40°40' W 074°04'2 2.0
2016-May-17 21:33N 40°39' W 074°06'4 0.5
2016-May-17 13:33N 40°39' W 074°11'1 0.6
2016-May-17 12:15N 40°38' W 074°12'0 0.0
2016-May-17 11:34N 40°38' W 074°12'1 0.7
2016-May-17 10:33N 40°39' W 074°11'5 5.5
2016-May-17 09:33N 40°39' W 074°04'2 2.3
2016-May-17 08:33N 40°40' W 074°01'4 0.6
2016-May-17 02:34N 40°39' W 074°05'0 0.3
2016-May-17 01:33N 40°39' W 074°06'1 0.5
2016-May-16 23:20N 40°39' W 074°07'5 6.9
2016-May-16 22:33N 40°40' W 074°00'7 4.5
2016-May-16 21:06N 40°40' W 074°09'2 0.1
2016-May-15 18:10N 40°41' W 074°09'0 0.0
2016-May-15 17:34N 40°41' W 074°09'1 0.1
2016-May-15 13:11N 40°41' W 074°09'5 0.9
2016-May-15 07:33N 40°39' W 074°02'1 1.3
2016-May-15 06:34N 40°40' W 074°04'  
Track history (hours):
 
Tides and Currents Weather Stations Pressure Air Temp Water Temp Dewpoint Dewpoint Depression Visibility Wind Speed Wind Dir Waves Ship Positions

Emerald Coast

Owner: Dann Marine Towing, LC, Chesapeake City, MD. More information available from US FCC via Universal Licensing System and Coast Guard Vessel Documentation Center.

Last reported at 2016-May-25 00:33 UTC. Time now 2016-May-25 01:26 UTC.
Position N 40°40' W 074°09'.

Length 28 m; draft 3 m.

Type: Towing. MMSI: 367097920.

Date/timePositionNaut miles runAvg speedWind from/ knotsBaromVisibWave heightAir tempDewpointWater temp
2016-May-25 00:33N 40°40' W 074°09'0 0.0
2016-May-24 23:33N 40°40' W 074°08'1 1.2
2016-May-24 22:33N 40°41' W 074°09'0 0.3
2016-May-24 21:34N 40°41' W 074°09'1 1.4
2016-May-24 20:33N 40°40' W 074°09'0 0.0
2016-May-24 19:34N 40°40' W 074°09'0 0.0
2016-May-24 18:33N 40°40' W 074°09'0 0.0
2016-May-24 17:33N 40°40' W 074°09'0 0.0
2016-May-24 16:33N 40°40' W 074°09'1 1.0
2016-May-24 15:34N 40°41' W 074°08'3 2.8
2016-May-24 14:34N 40°39' W 074°05'2 0.5
2016-May-24 11:09N 40°39' W 074°07'0 0.0
2016-May-24 09:33N 40°39' W 074°07'4 3.8
2016-May-24 08:33N 40°40' W 074°03'0 0.0
2016-May-24 07:33N 40°40' W 074°03'0 0.0
2016-May-24 06:34N 40°40' W 074°03'0 0.0
2016-May-24 05:34N 40°40' W 074°03'0 0.2
2016-May-24 04:33N 40°40' W 074°03'0 0.1
2016-May-24 03:33N 40°41' W 074°03'0 0.0
2016-May-24 02:33N 40°41' W 074°03'4 4.5
2016-May-24 01:33N 40°39' W 074°08'2 2.3
2016-May-24 00:33N 40°41' W 074°09'0 0.0
2016-May-23 23:33N 40°41' W 074°09'0 0.0
2016-May-23 22:34N 40°41' W 074°09'0 0.0
2016-May-23 21:33N 40°41' W 074°09'0 0.0
2016-May-23 20:33N 40°41' W 074°09'0 0.0
2016-May-23 19:33N 40°41' W 074°09'0 0.0
2016-May-23 18:33N 40°41' W 074°09'0 0.1
2016-May-23 17:34N 40°41' W 074°09'0 0.1
2016-May-23 16:33N 40°41' W 074°09'0 0.0
2016-May-23 15:33N 40°41' W 074°09'1 0.5
2016-May-23 14:32N 40°41' W 074°09'0 0.0
2016-May-23 13:32N 40°41' W 074°09'0 0.0
2016-May-23 12:33N 40°41' W 074°09'0 0.0
2016-May-23 11:31N 40°41' W 074°09'0 0.0
2016-May-23 10:04N 40°41' W 074°09'0 0.0
2016-May-23 09:33N 40°41' W 074°09'3 3.1
2016-May-23 08:34N 40°39' W 074°07'2 0.1
2016-May-22 16:33N 40°39' W 074°05'1 1.0
2016-May-22 15:33N 40°40' W 074°04'0 0.0
2016-May-22 14:34N 40°40' W 074°04'0 0.0
2016-May-22 13:33N 40°40' W 074°04'0 0.0
2016-May-22 12:34N 40°40' W 074°04'0 0.0
2016-May-22 11:33N 40°40' W 074°04'2 1.6
2016-May-22 10:33N 40°39' W 074°03'2 1.6
2016-May-22 09:33N 40°40' W 074°04'0 0.0
2016-May-22 08:34N 40°40' W 074°04'0 0.0
2016-May-22 07:33N 40°40' W 074°04'0 0.0
2016-May-22 06:34N 40°40' W 074°04'0 0.0
2016-May-22 05:34N 40°40' W 074°04'2 2.3
2016-May-22 04:33N 40°40' W 074°01'1 0.6
2016-May-22 03:33N 40°40' W 074°00'0 0.0
2016-May-22 02:33N 40°40' W 074°00'0 0.0
2016-May-22 01:34N 40°40' W 074°00'0 0.0
2016-May-22 00:33N 40°40' W 074°00'0 0.0
2016-May-21 23:33N 40°40' W 074°00'0 0.0
2016-May-21 22:33N 40°40' W 074°00'0 0.3
2016-May-21 21:33N 40°40' W 074°00'0 0.3
2016-May-21 20:34N 40°40' W 074°01'0 0.0
2016-May-21 19:33N 40°40' W 074°01'0 0.0
2016-May-21 18:33N 40°40' W 074°01'0 0.0
2016-May-21 17:34N 40°40' W 074°01'0 0.1
2016-May-21 16:34N 40°40' W 074°01'3 2.9
2016-May-21 15:33N 40°40' W 074°04'0 0.0
2016-May-21 14:33N 40°40' W 074°04'0 0.0
2016-May-21 13:33N 40°40' W 074°04'0 0.0
2016-May-21 12:33N 40°40' W 074°04'0 0.3
2016-May-21 11:33N 40°40' W 074°04'0 0.3
2016-May-21 10:33N 40°40' W 074°04'0 0.0
2016-May-21 09:33N 40°40' W 074°04'0 0.0
2016-May-21 08:33N 40°40' W 074°04'0 0.1
2016-May-21 07:33N 40°40' W 074°04'1 0.2
2016-May-21 00:33N 40°39' W 074°05'2 2.4
2016-May-20 23:33N 40°41' W 074°03'4 0.7
2016-May-20 18:09N 40°39' W 074°07'0 0.0
2016-May-20 17:25N 40°38' W 074°07'0 0.1
2016-May-20 14:33N 40°39' W 074°07'5 4.6
2016-May-20 13:33N 40°40' W 074°01'6 5.8
2016-May-20 12:33N 40°39' W 074°09'1 1.4
2016-May-20 11:33N 40°41' W 074°09'1 0.6
2016-May-20 10:34N 40°41' W 074°09'0 0.0
2016-May-20 09:33N 40°41' W 074°09'0 0.0
2016-May-20 08:33N 40°41' W 074°09'0 0.0
2016-May-20 07:33N 40°41' W 074°09'0 0.0
2016-May-20 06:33N 40°41' W 074°09'0 0.0
2016-May-20 05:33N 40°41' W 074°09'0 0.0
2016-May-20 04:33N 40°41' W 074°09'0 0.0
2016-May-20 03:34N 40°41' W 074°09'0 0.0
2016-May-20 02:34N 40°41' W 074°09'0 0.0
2016-May-20 01:33N 40°41' W 074°09'0 0.0
2016-May-20 00:33N 40°41' W 074°09'3 2.8
2016-May-19 23:33N 40°39' W 074°08'4 3.9
2016-May-19 22:33N 40°39' W 074°03'2 2.0
2016-May-19 21:34N 40°40' W 074°00'0 0.0
2016-May-19 20:34N 40°40' W 074°00'0 0.0
2016-May-19 19:34N 40°40' W 074°00'0 0.0
2016-May-19 18:33N 40°40' W 074°00'4 3.7
2016-May-19 17:33N 40°39' W 074°05'3 2.8
2016-May-19 16:33N 40°40' W 074°09'0 0.0
2016-May-19 15:34N 40°40' W 074°09'0 0.0
2016-May-19 14:33N 40°40' W 074°09'0 0.0
2016-May-19 13:33N 40°40' W 074°09'2 2.1
2016-May-19 12:33N 40°39' W 074°06'5 5.3
2016-May-19 11:34N 40°41' W 074°00'0 0.0
2016-May-19 10:33N 40°41' W 074°00'7 6.8
2016-May-19 09:33N 40°39' W 074°09'2 1.9
2016-May-19 08:33N 40°41' W 074°09'0 0.0
2016-May-19 07:33N 40°41' W 074°09'0 0.0
2016-May-19 06:33N 40°41' W 074°09'0 0.0
2016-May-19 02:15N 40°41' W 074°09'0 0.0
2016-May-18 22:09N 40°41' W 074°09'1 2.2
2016-May-18 21:34N 40°40' W 074°08'1 0.9
2016-May-18 20:33N 40°39' W 074°09'2 0.5
2016-May-18 15:34N 40°39' W 074°05'5 4.6
2016-May-18 14:34N 40°41' W 074°00'4 4.4
2016-May-18 13:33N 40°39' W 074°05'3 2.9
2016-May-18 12:33N 40°40' W 074°08'2 2.1
2016-May-18 11:34N 40°39' W 074°06'4 4.0
2016-May-18 10:33N 40°40' W 074°01'1 0.7
2016-May-18 09:33N 40°40' W 074°00'0 0.0
2016-May-18 08:34N 40°40' W 074°00'0 0.0
2016-May-18 07:33N 40°40' W 074°00'0 0.0
2016-May-18 06:33N 40°40' W 074°00'0 0.0
2016-May-18 05:33N 40°40' W 074°00'0 0.0
2016-May-18 04:33N 40°40' W 074°00'1 1.3
2016-May-18 03:33N 40°41' W 074°00'4 4.5
2016-May-18 02:34N 40°38' W 074°04'3 2.8
2016-May-18 01:33N 40°39' W 074°07'0 0.0
2016-May-18 00:33N 40°39' W 074°07'2 2.4
2016-May-17 23:33N 40°39' W 074°04'1 0.7
2016-May-17 22:33N 40°40' W 074°04'2 2.0
2016-May-17 21:33N 40°39' W 074°06'4 0.5
2016-May-17 13:33N 40°39' W 074°11'1 0.6
2016-May-17 12:15N 40°38' W 074°12'0 0.0
2016-May-17 11:34N 40°38' W 074°12'1 0.7
2016-May-17 10:33N 40°39' W 074°11'5 5.5
2016-May-17 09:33N 40°39' W 074°04'2 2.3
2016-May-17 08:33N 40°40' W 074°01'4 0.6
2016-May-17 02:34N 40°39' W 074°05'0 0.3
2016-May-17 01:33N 40°39' W 074°06'1 0.5
2016-May-16 23:20N 40°39' W 074°07'5 6.9
2016-May-16 22:33N 40°40' W 074°00'7 4.5
2016-May-16 21:06N 40°40' W 074°09'2 0.1
2016-May-15 18:10N 40°41' W 074°09'0 0.0
2016-May-15 17:34N 40°41' W 074°09'1 0.1
2016-May-15 13:11N 40°41' W 074°09'5 0.9
2016-May-15 07:33N 40°39' W 074°02'1 1.3
2016-May-15 06:34N 40°40' W 074°04'  

Dump ship's entire track history